sensor_id;sensor_type;location;lat;lon;timestamp;pressure;altitude;pressure_sealevel;temperature;humidity
71764;BME280;59602;52.142;5.408;2023-04-06T00:01:18;101969.94;;;3.57;79.77
71764;BME280;59602;52.142;5.408;2023-04-06T00:03:48;101975.44;;;3.52;78.93
71764;BME280;59602;52.142;5.408;2023-04-06T00:06:18;101976.56;;;3.51;79.56
71764;BME280;59602;52.142;5.408;2023-04-06T00:08:46;101968.00;;;3.49;79.49
71764;BME280;59602;52.142;5.408;2023-04-06T00:11:26;101961.50;;;3.50;79.41
71764;BME280;59602;52.142;5.408;2023-04-06T00:13:54;101968.28;;;3.47;79.19
71764;BME280;59602;52.142;5.408;2023-04-06T00:16:21;101958.94;;;3.45;79.09
71764;BME280;59602;52.142;5.408;2023-04-06T00:18:50;101966.81;;;3.41;79.27
71764;BME280;59602;52.142;5.408;2023-04-06T00:21:17;101962.03;;;3.38;79.06
71764;BME280;59602;52.142;5.408;2023-04-06T00:23:44;101955.97;;;3.32;79.35
71764;BME280;59602;52.142;5.408;2023-04-06T00:26:17;101961.66;;;3.31;79.23
71764;BME280;59602;52.142;5.408;2023-04-06T00:28:44;101956.59;;;3.29;79.83
71764;BME280;59602;52.142;5.408;2023-04-06T00:31:27;101949.94;;;3.27;79.17
71764;BME280;59602;52.142;5.408;2023-04-06T00:34:02;101946.25;;;3.23;79.59
71764;BME280;59602;52.142;5.408;2023-04-06T00:36:30;101947.03;;;3.23;79.48
71764;BME280;59602;52.142;5.408;2023-04-06T00:38:57;101932.03;;;3.22;79.87
71764;BME280;59602;52.142;5.408;2023-04-06T00:41:33;101937.69;;;3.21;80.12
71764;BME280;59602;52.142;5.408;2023-04-06T00:44:00;101937.19;;;3.19;80.15
71764;BME280;59602;52.142;5.408;2023-04-06T00:46:28;101929.75;;;3.16;80.03
71764;BME280;59602;52.142;5.408;2023-04-06T00:48:55;101928.75;;;3.11;80.33
71764;BME280;59602;52.142;5.408;2023-04-06T00:51:22;101923.66;;;3.10;80.13
71764;BME280;59602;52.142;5.408;2023-04-06T00:53:52;101912.94;;;3.10;80.07
71764;BME280;59602;52.142;5.408;2023-04-06T00:56:21;101917.81;;;3.08;80.02
71764;BME280;59602;52.142;5.408;2023-04-06T00:58:49;101918.91;;;3.07;80.18
71764;BME280;59602;52.142;5.408;2023-04-06T01:01:16;101920.19;;;3.09;80.62
71764;BME280;59602;52.142;5.408;2023-04-06T01:03:43;101911.06;;;3.10;81.05
71764;BME280;59602;52.142;5.408;2023-04-06T01:06:13;101915.31;;;3.11;80.73
71764;BME280;59602;52.142;5.408;2023-04-06T01:08:40;101907.56;;;3.10;80.80
71764;BME280;59602;52.142;5.408;2023-04-06T01:11:08;101904.06;;;3.09;80.34
71764;BME280;59602;52.142;5.408;2023-04-06T01:13:36;101904.88;;;3.10;80.32
71764;BME280;59602;52.142;5.408;2023-04-06T01:16:12;101900.78;;;3.12;80.68
71764;BME280;59602;52.142;5.408;2023-04-06T01:18:39;101894.31;;;3.14;81.05
71764;BME280;59602;52.142;5.408;2023-04-06T01:21:09;101896.72;;;3.15;81.66
71764;BME280;59602;52.142;5.408;2023-04-06T01:23:44;101896.72;;;3.15;81.36
71764;BME280;59602;52.142;5.408;2023-04-06T01:26:13;101891.34;;;3.15;81.54
71764;BME280;59602;52.142;5.408;2023-04-06T01:28:40;101888.31;;;3.17;81.17
71764;BME280;59602;52.142;5.408;2023-04-06T01:31:07;101886.94;;;3.19;81.13
71764;BME280;59602;52.142;5.408;2023-04-06T01:33:35;101880.75;;;3.19;81.61
71764;BME280;59602;52.142;5.408;2023-04-06T01:36:02;101885.84;;;3.20;81.43
71764;BME280;59602;52.142;5.408;2023-04-06T01:38:29;101884.25;;;3.19;81.79
71764;BME280;59602;52.142;5.408;2023-04-06T01:40:56;101880.16;;;3.22;81.71
71764;BME280;59602;52.142;5.408;2023-04-06T01:43:23;101871.00;;;3.23;81.74
71764;BME280;59602;52.142;5.408;2023-04-06T01:45:49;101877.66;;;3.25;81.65
71764;BME280;59602;52.142;5.408;2023-04-06T01:48:16;101872.00;;;3.27;81.84
71764;BME280;59602;52.142;5.408;2023-04-06T01:50:43;101861.53;;;3.25;81.79
71764;BME280;59602;52.142;5.408;2023-04-06T01:53:10;101860.94;;;3.28;82.13
71764;BME280;59602;52.142;5.408;2023-04-06T01:55:38;101860.63;;;3.30;82.28
71764;BME280;59602;52.142;5.408;2023-04-06T01:58:04;101862.53;;;3.29;82.07
71764;BME280;59602;52.142;5.408;2023-04-06T02:00:31;101863.63;;;3.28;82.12
71764;BME280;59602;52.142;5.408;2023-04-06T02:03:01;101853.97;;;3.27;82.09
71764;BME280;59602;52.142;5.408;2023-04-06T02:05:33;101846.19;;;3.26;82.31
71764;BME280;59602;52.142;5.408;2023-04-06T02:08:04;101845.59;;;3.29;82.30
71764;BME280;59602;52.142;5.408;2023-04-06T02:10:32;101848.78;;;3.31;82.08
71764;BME280;59602;52.142;5.408;2023-04-06T02:13:07;101840.41;;;3.32;82.44
71764;BME280;59602;52.142;5.408;2023-04-06T02:15:36;101842.50;;;3.36;82.23
71764;BME280;59602;52.142;5.408;2023-04-06T02:18:04;101826.06;;;3.37;82.83
71764;BME280;59602;52.142;5.408;2023-04-06T02:20:30;101823.38;;;3.37;82.77
71764;BME280;59602;52.142;5.408;2023-04-06T02:22:59;101830.63;;;3.37;83.26
71764;BME280;59602;52.142;5.408;2023-04-06T02:25:26;101827.63;;;3.38;83.27
71764;BME280;59602;52.142;5.408;2023-04-06T02:28:01;101821.66;;;3.41;83.05
71764;BME280;59602;52.142;5.408;2023-04-06T02:30:28;101819.78;;;3.42;83.40
71764;BME280;59602;52.142;5.408;2023-04-06T02:32:55;101825.59;;;3.44;83.65
71764;BME280;59602;52.142;5.408;2023-04-06T02:35:25;101824.53;;;3.45;83.53
71764;BME280;59602;52.142;5.408;2023-04-06T02:37:57;101821.22;;;3.48;83.57
71764;BME280;59602;52.142;5.408;2023-04-06T02:40:27;101825.19;;;3.50;83.34
71764;BME280;59602;52.142;5.408;2023-04-06T02:42:54;101822.50;;;3.50;83.51
71764;BME280;59602;52.142;5.408;2023-04-06T02:45:21;101811.75;;;3.50;83.17
71764;BME280;59602;52.142;5.408;2023-04-06T02:47:47;101807.66;;;3.53;83.21
71764;BME280;59602;52.142;5.408;2023-04-06T02:50:17;101807.97;;;3.51;82.97
71764;BME280;59602;52.142;5.408;2023-04-06T02:52:45;101805.47;;;3.55;83.62
71764;BME280;59602;52.142;5.408;2023-04-06T02:55:15;101800.56;;;3.57;83.25
71764;BME280;59602;52.142;5.408;2023-04-06T02:57:46;101793.78;;;3.60;82.92
71764;BME280;59602;52.142;5.408;2023-04-06T03:00:13;101800.75;;;3.61;82.89
71764;BME280;59602;52.142;5.408;2023-04-06T03:02:40;101792.19;;;3.59;82.83
71764;BME280;59602;52.142;5.408;2023-04-06T03:05:07;101790.28;;;3.59;82.61
71764;BME280;59602;52.142;5.408;2023-04-06T03:07:33;101784.91;;;3.59;82.46
71764;BME280;59602;52.142;5.408;2023-04-06T03:10:00;101791.59;;;3.62;82.47
71764;BME280;59602;52.142;5.408;2023-04-06T03:12:29;101785.09;;;3.63;82.85
71764;BME280;59602;52.142;5.408;2023-04-06T03:15:02;101783.38;;;3.67;82.20
71764;BME280;59602;52.142;5.408;2023-04-06T03:17:29;101786.22;;;3.70;82.74
71764;BME280;59602;52.142;5.408;2023-04-06T03:19:58;101787.03;;;3.71;82.59
71764;BME280;59602;52.142;5.408;2023-04-06T03:22:25;101779.47;;;3.73;82.97
71764;BME280;59602;52.142;5.408;2023-04-06T03:24:53;101776.78;;;3.73;82.87
71764;BME280;59602;52.142;5.408;2023-04-06T03:27:21;101776.44;;;3.74;82.92
71764;BME280;59602;52.142;5.408;2023-04-06T03:29:47;101775.97;;;3.72;83.00
71764;BME280;59602;52.142;5.408;2023-04-06T03:32:16;101768.38;;;3.74;82.88
71764;BME280;59602;52.142;5.408;2023-04-06T03:34:51;101768.38;;;3.74;82.80
71764;BME280;59602;52.142;5.408;2023-04-06T03:37:21;101776.63;;;3.78;82.72
71764;BME280;59602;52.142;5.408;2023-04-06T03:39:52;101765.88;;;3.78;82.79
71764;BME280;59602;52.142;5.408;2023-04-06T03:42:22;101760.78;;;3.77;82.25
71764;BME280;59602;52.142;5.408;2023-04-06T03:44:51;101757.50;;;3.80;82.18
71764;BME280;59602;52.142;5.408;2023-04-06T03:47:34;101764.16;;;3.82;82.22
71764;BME280;59602;52.142;5.408;2023-04-06T03:50:01;101761.63;;;3.86;82.02
71764;BME280;59602;52.142;5.408;2023-04-06T03:52:34;101759.75;;;3.86;81.80
71764;BME280;59602;52.142;5.408;2023-04-06T03:55:01;101754.38;;;3.86;82.22
71764;BME280;59602;52.142;5.408;2023-04-06T03:57:28;101759.75;;;3.86;82.81
71764;BME280;59602;52.142;5.408;2023-04-06T03:59:57;101747.09;;;3.87;82.50
71764;BME280;59602;52.142;5.408;2023-04-06T04:02:24;101746.59;;;3.85;83.12
71764;BME280;59602;52.142;5.408;2023-04-06T04:05:05;101755.94;;;3.87;82.97
71764;BME280;59602;52.142;5.408;2023-04-06T04:07:32;101750.56;;;3.87;82.86
71764;BME280;59602;52.142;5.408;2023-04-06T04:10:11;101754.03;;;3.88;82.71
71764;BME280;59602;52.142;5.408;2023-04-06T04:12:40;101750.56;;;3.87;82.60
71764;BME280;59602;52.142;5.408;2023-04-06T04:15:07;101751.66;;;3.86;82.28
71764;BME280;59602;52.142;5.408;2023-04-06T04:17:34;101757.50;;;3.88;82.16
71764;BME280;59602;52.142;5.408;2023-04-06T04:20:04;101748.66;;;3.88;82.71
71764;BME280;59602;52.142;5.408;2023-04-06T04:22:31;101742.97;;;3.89;82.07
71764;BME280;59602;52.142;5.408;2023-04-06T04:25:04;101746.75;;;3.88;83.06
71764;BME280;59602;52.142;5.408;2023-04-06T04:27:37;101751.66;;;3.86;82.47
71764;BME280;59602;52.142;5.408;2023-04-06T04:30:06;101754.38;;;3.86;81.68
71764;BME280;59602;52.142;5.408;2023-04-06T04:32:35;101751.66;;;3.86;81.46
71764;BME280;59602;52.142;5.408;2023-04-06T04:35:03;101754.03;;;3.88;81.23
71764;BME280;59602;52.142;5.408;2023-04-06T04:37:30;101748.50;;;3.84;81.16
71764;BME280;59602;52.142;5.408;2023-04-06T04:39:59;101751.50;;;3.83;80.95
71764;BME280;59602;52.142;5.408;2023-04-06T04:42:27;101749.59;;;3.83;80.79
71764;BME280;59602;52.142;5.408;2023-04-06T04:44:56;101749.59;;;3.83;80.49
71764;BME280;59602;52.142;5.408;2023-04-06T05:05:04;101740.00;;;4.00;79.83
71764;BME280;59602;52.142;5.408;2023-04-06T05:07:34;101737.47;;;4.03;79.16
71764;BME280;59602;52.142;5.408;2023-04-06T05:10:17;101740.34;;;4.07;79.13
71764;BME280;59602;52.142;5.408;2023-04-06T05:12:53;101743.19;;;4.10;79.99
71764;BME280;59602;52.142;5.408;2023-04-06T05:15:45;101738.28;;;4.12;79.72
71764;BME280;59602;52.142;5.408;2023-04-06T05:18:44;101740.03;;;4.17;78.73
71764;BME280;59602;52.142;5.408;2023-04-06T05:21:36;101738.00;;;4.23;78.63
71764;BME280;59602;52.142;5.408;2023-04-06T05:24:31;101731.69;;;4.27;78.18
71764;BME280;59602;52.142;5.408;2023-04-06T05:27:21;101736.59;;;4.34;77.49
71764;BME280;59602;52.142;5.408;2023-04-06T05:29:49;101741.81;;;4.39;77.11
71764;BME280;59602;52.142;5.408;2023-04-06T05:32:17;101735.81;;;4.42;77.08
71764;BME280;59602;52.142;5.408;2023-04-06T05:34:49;101737.56;;;4.47;77.05
71764;BME280;59602;52.142;5.408;2023-04-06T05:37:16;101736.63;;;4.51;77.25
71764;BME280;59602;52.142;5.408;2023-04-06T05:39:43;101739.16;;;4.56;77.34
71764;BME280;59602;52.142;5.408;2023-04-06T05:42:10;101732.81;;;4.61;77.10
71764;BME280;59602;52.142;5.408;2023-04-06T05:44:38;101733.13;;;4.68;77.30
71764;BME280;59602;52.142;5.408;2023-04-06T05:47:05;101728.38;;;4.74;76.58
71764;BME280;59602;52.142;5.408;2023-04-06T05:49:32;101730.59;;;4.81;76.44
71764;BME280;59602;52.142;5.408;2023-04-06T06:53:04;101712.13;;;6.12;71.53
71764;BME280;59602;52.142;5.408;2023-04-06T06:55:45;101724.78;;;6.20;70.74
71764;BME280;59602;52.142;5.408;2023-04-06T06:58:28;101719.00;;;6.30;71.42
71764;BME280;59602;52.142;5.408;2023-04-06T07:00:57;101722.91;;;6.41;71.26
71764;BME280;59602;52.142;5.408;2023-04-06T07:03:26;101720.00;;;6.47;70.89
71764;BME280;59602;52.142;5.408;2023-04-06T07:06:00;101720.91;;;6.51;69.93
71764;BME280;59602;52.142;5.408;2023-04-06T07:08:34;101715.50;;;6.51;69.80
71764;BME280;59602;52.142;5.408;2023-04-06T07:11:13;101710.91;;;6.51;69.66
71764;BME280;59602;52.142;5.408;2023-04-06T08:30:25;101696.91;;;7.61;65.82
71764;BME280;59602;52.142;5.408;2023-04-06T08:32:51;101692.38;;;7.65;65.40
71764;BME280;59602;52.142;5.408;2023-04-06T08:35:18;101702.44;;;7.65;65.10
71764;BME280;59602;52.142;5.408;2023-04-06T08:37:46;101697.59;;;7.71;65.52
71764;BME280;59602;52.142;5.408;2023-04-06T08:40:13;101688.56;;;7.79;65.95
71764;BME280;59602;52.142;5.408;2023-04-06T08:42:40;101687.22;;;7.85;65.94
71764;BME280;59602;52.142;5.408;2023-04-06T08:45:12;101685.41;;;7.89;65.87
71764;BME280;59602;52.142;5.408;2023-04-06T08:47:40;101690.94;;;7.93;65.49
71764;BME280;59602;52.142;5.408;2023-04-06T08:50:08;101686.31;;;7.93;64.87
71764;BME280;59602;52.142;5.408;2023-04-06T08:52:35;101694.53;;;7.97;65.36
71764;BME280;59602;52.142;5.408;2023-04-06T08:55:05;101696.66;;;8.03;65.41
71764;BME280;59602;52.142;5.408;2023-04-06T08:57:32;101694.59;;;8.13;65.80
71764;BME280;59602;52.142;5.408;2023-04-06T09:00:01;101694.03;;;8.19;64.98
71764;BME280;59602;52.142;5.408;2023-04-06T09:02:27;101688.41;;;8.24;64.95
71764;BME280;59602;52.142;5.408;2023-04-06T09:04:55;101696.28;;;8.29;64.91
71764;BME280;59602;52.142;5.408;2023-04-06T09:07:25;101694.13;;;8.35;64.54
71764;BME280;59602;52.142;5.408;2023-04-06T09:09:55;101699.00;;;8.42;65.01
71764;BME280;59602;52.142;5.408;2023-04-06T09:12:26;101701.47;;;8.47;64.64
71764;BME280;59602;52.142;5.408;2023-04-06T09:15:00;101708.22;;;8.53;64.43
71764;BME280;59602;52.142;5.408;2023-04-06T09:17:47;101704.25;;;8.63;64.44
71764;BME280;59602;52.142;5.408;2023-04-06T09:20:13;101705.47;;;8.65;64.24
71764;BME280;59602;52.142;5.408;2023-04-06T09:22:40;101702.94;;;8.72;64.33
71764;BME280;59602;52.142;5.408;2023-04-06T09:25:09;101702.72;;;8.78;64.30
71764;BME280;59602;52.142;5.408;2023-04-06T09:27:44;101693.19;;;8.84;64.20
71764;BME280;59602;52.142;5.408;2023-04-06T09:30:17;101696.69;;;8.84;63.95
71764;BME280;59602;52.142;5.408;2023-04-06T09:32:59;101699.41;;;8.84;63.81
71764;BME280;59602;52.142;5.408;2023-04-06T09:35:35;101698.72;;;8.87;63.67
71764;BME280;59602;52.142;5.408;2023-04-06T09:38:11;101703.09;;;8.92;64.24
71764;BME280;59602;52.142;5.408;2023-04-06T09:41:09;101698.91;;;8.94;63.85
71764;BME280;59602;52.142;5.408;2023-04-06T09:43:37;101700.56;;;8.99;64.21
71764;BME280;59602;52.142;5.408;2023-04-06T09:46:04;101696.81;;;9.04;63.77
71764;BME280;59602;52.142;5.408;2023-04-06T09:48:33;101705.06;;;9.07;63.32
71764;BME280;59602;52.142;5.408;2023-04-06T09:51:03;101699.28;;;9.09;64.20
71764;BME280;59602;52.142;5.408;2023-04-06T09:53:36;101702.53;;;9.14;64.48
71764;BME280;59602;52.142;5.408;2023-04-06T09:56:09;101696.59;;;9.25;65.24
71764;BME280;59602;52.142;5.408;2023-04-06T09:58:41;101705.34;;;9.34;65.01
71764;BME280;59602;52.142;5.408;2023-04-06T10:01:15;101702.38;;;9.39;65.30
71764;BME280;59602;52.142;5.408;2023-04-06T10:03:54;101703.25;;;9.43;66.26
71764;BME280;59602;52.142;5.408;2023-04-06T10:06:23;101696.94;;;9.39;66.41
71764;BME280;59602;52.142;5.408;2023-04-06T10:08:54;101693.19;;;9.28;67.21
71764;BME280;59602;52.142;5.408;2023-04-06T10:11:23;101703.31;;;9.31;68.43
71764;BME280;59602;52.142;5.408;2023-04-06T10:13:50;101697.66;;;9.36;69.03
71764;BME280;59602;52.142;5.408;2023-04-06T10:16:17;101699.75;;;9.43;69.49
71764;BME280;59602;52.142;5.408;2023-04-06T10:18:52;101713.22;;;9.55;68.97
71764;BME280;59602;52.142;5.408;2023-04-06T10:21:23;101704.47;;;9.62;68.99
71764;BME280;59602;52.142;5.408;2023-04-06T10:23:55;101708.16;;;9.69;69.37
71764;BME280;59602;52.142;5.408;2023-04-06T10:26:24;101708.22;;;9.73;69.88
71764;BME280;59602;52.142;5.408;2023-04-06T10:28:51;101711.81;;;9.77;70.88
71764;BME280;59602;52.142;5.408;2023-04-06T10:31:28;101704.81;;;9.76;70.14
71764;BME280;59602;52.142;5.408;2023-04-06T10:33:56;101700.88;;;9.73;70.66
71764;BME280;59602;52.142;5.408;2023-04-06T10:36:25;101698.84;;;9.70;70.20
71764;BME280;59602;52.142;5.408;2023-04-06T10:38:55;101700.69;;;9.66;71.51
71764;BME280;59602;52.142;5.408;2023-04-06T10:41:23;101701.50;;;9.67;72.07
71764;BME280;59602;52.142;5.408;2023-04-06T10:43:56;101694.94;;;9.68;73.45
71764;BME280;59602;52.142;5.408;2023-04-06T10:46:25;101698.69;;;9.63;73.78
71764;BME280;59602;52.142;5.408;2023-04-06T10:48:52;101694.31;;;9.59;74.10
71764;BME280;59602;52.142;5.408;2023-04-06T10:51:24;101698.59;;;9.60;74.99
71764;BME280;59602;52.142;5.408;2023-04-06T10:53:54;101700.19;;;9.61;75.66
71764;BME280;59602;52.142;5.408;2023-04-06T10:56:23;101695.19;;;9.63;76.30
71764;BME280;59602;52.142;5.408;2023-04-06T10:58:53;101696.31;;;9.62;77.27
71764;BME280;59602;52.142;5.408;2023-04-06T11:01:21;101695.63;;;9.65;78.11
71764;BME280;59602;52.142;5.408;2023-04-06T11:03:49;101693.53;;;9.58;78.18
71764;BME280;59602;52.142;5.408;2023-04-06T11:06:20;101687.56;;;9.52;77.40
71764;BME280;59602;52.142;5.408;2023-04-06T11:08:47;101692.06;;;9.45;77.27
71764;BME280;59602;52.142;5.408;2023-04-06T11:11:16;101693.19;;;9.44;78.98
71764;BME280;59602;52.142;5.408;2023-04-06T11:13:53;101684.97;;;9.40;79.34
71764;BME280;59602;52.142;5.408;2023-04-06T11:16:25;101681.44;;;9.40;80.38
71764;BME280;59602;52.142;5.408;2023-04-06T11:18:55;101685.75;;;9.41;79.76
71764;BME280;59602;52.142;5.408;2023-04-06T11:21:37;101677.25;;;9.42;79.68
71764;BME280;59602;52.142;5.408;2023-04-06T11:24:08;101675.50;;;9.34;79.78
71764;BME280;59602;52.142;5.408;2023-04-06T11:26:38;101678.91;;;9.31;80.61
71764;BME280;59602;52.142;5.408;2023-04-06T11:29:05;101667.03;;;9.35;81.61
71764;BME280;59602;52.142;5.408;2023-04-06T11:31:38;101671.75;;;9.39;81.02
71764;BME280;59602;52.142;5.408;2023-04-06T11:34:10;101668.91;;;9.35;81.49
71764;BME280;59602;52.142;5.408;2023-04-06T11:36:40;101669.72;;;9.35;81.71
71764;BME280;59602;52.142;5.408;2023-04-06T11:39:08;101673.22;;;9.36;82.18
71764;BME280;59602;52.142;5.408;2023-04-06T11:41:34;101659.28;;;9.38;81.55
71764;BME280;59602;52.142;5.408;2023-04-06T11:44:02;101663.94;;;9.37;81.78
71764;BME280;59602;52.142;5.408;2023-04-06T11:46:29;101653.78;;;9.34;81.72
71764;BME280;59602;52.142;5.408;2023-04-06T11:49:00;101668.13;;;9.34;82.35
71764;BME280;59602;52.142;5.408;2023-04-06T11:51:27;101656.06;;;9.32;82.28
71764;BME280;59602;52.142;5.408;2023-04-06T11:53:54;101651.69;;;9.27;80.84
71764;BME280;59602;52.142;5.408;2023-04-06T11:56:23;101642.41;;;9.28;81.53
71764;BME280;59602;52.142;5.408;2023-04-06T11:58:51;101646.53;;;9.38;81.76
71764;BME280;59602;52.142;5.408;2023-04-06T12:01:18;101643.97;;;9.45;81.16
71764;BME280;59602;52.142;5.408;2023-04-06T12:03:48;101647.19;;;9.51;81.65
71764;BME280;59602;52.142;5.408;2023-04-06T12:06:15;101640.53;;;9.48;81.06
71764;BME280;59602;52.142;5.408;2023-04-06T12:08:43;101643.88;;;9.42;81.05
71764;BME280;59602;52.142;5.408;2023-04-06T12:11:11;101645.03;;;9.41;80.81
71764;BME280;59602;52.142;5.408;2023-04-06T12:13:38;101637.31;;;9.43;81.68
71764;BME280;59602;52.142;5.408;2023-04-06T12:16:06;101634.63;;;9.43;81.73
71764;BME280;59602;52.142;5.408;2023-04-06T12:18:33;101638.56;;;9.45;82.37
71764;BME280;59602;52.142;5.408;2023-04-06T12:21:00;101635.84;;;9.45;82.85
71764;BME280;59602;52.142;5.408;2023-04-06T12:23:27;101626.53;;;9.46;83.03
71764;BME280;59602;52.142;5.408;2023-04-06T12:25:54;101629.34;;;9.50;82.24
71764;BME280;59602;52.142;5.408;2023-04-06T12:28:21;101625.41;;;9.47;82.13
71764;BME280;59602;52.142;5.408;2023-04-06T12:30:53;101636.56;;;9.42;82.38
71764;BME280;59602;52.142;5.408;2023-04-06T12:33:20;101622.88;;;9.39;82.45
71764;BME280;59602;52.142;5.408;2023-04-06T12:35:50;101619.28;;;9.34;82.26
71764;BME280;59602;52.142;5.408;2023-04-06T12:38:18;101623.59;;;9.35;82.83
71764;BME280;59602;52.142;5.408;2023-04-06T12:40:44;101625.88;;;9.33;81.83
71764;BME280;59602;52.142;5.408;2023-04-06T12:43:11;101628.75;;;9.25;82.83
71764;BME280;59602;52.142;5.408;2023-04-06T12:45:39;101632.97;;;9.22;83.10
71764;BME280;59602;52.142;5.408;2023-04-06T12:48:07;101625.59;;;9.23;82.73
71764;BME280;59602;52.142;5.408;2023-04-06T12:50:33;101620.19;;;9.23;83.01
71764;BME280;59602;52.142;5.408;2023-04-06T12:53:00;101614.31;;;9.21;83.14
71764;BME280;59602;52.142;5.408;2023-04-06T12:55:29;101608.88;;;9.21;83.32
71764;BME280;59602;52.142;5.408;2023-04-06T12:57:56;101606.94;;;9.21;83.92
71764;BME280;59602;52.142;5.408;2023-04-06T13:00:22;101600.84;;;9.24;83.92
71764;BME280;59602;52.142;5.408;2023-04-06T13:02:50;101609.31;;;9.23;84.01
71764;BME280;59602;52.142;5.408;2023-04-06T13:05:17;101600.75;;;9.21;84.36
71764;BME280;59602;52.142;5.408;2023-04-06T13:07:45;101598.13;;;9.24;83.66
71764;BME280;59602;52.142;5.408;2023-04-06T13:10:13;101597.69;;;9.22;83.43
71764;BME280;59602;52.142;5.408;2023-04-06T13:12:39;101604.25;;;9.21;83.82
71764;BME280;59602;52.142;5.408;2023-04-06T13:15:06;101583.16;;;9.14;84.25
71764;BME280;59602;52.142;5.408;2023-04-06T13:17:33;101589.97;;;9.08;83.89
71764;BME280;59602;52.142;5.408;2023-04-06T13:20:01;101589.13;;;9.04;84.21
71764;BME280;59602;52.142;5.408;2023-04-06T13:22:27;101592.25;;;9.06;84.48
71764;BME280;59602;52.142;5.408;2023-04-06T13:24:54;101577.13;;;9.05;84.87
71764;BME280;59602;52.142;5.408;2023-04-06T13:27:21;101587.97;;;9.05;84.97
71764;BME280;59602;52.142;5.408;2023-04-06T13:29:47;101580.97;;;9.04;85.31
71764;BME280;59602;52.142;5.408;2023-04-06T13:32:14;101580.09;;;9.00;85.07
71764;BME280;59602;52.142;5.408;2023-04-06T13:34:40;101588.13;;;8.97;84.88
71764;BME280;59602;52.142;5.408;2023-04-06T13:37:12;101579.13;;;8.92;85.89
71764;BME280;59602;52.142;5.408;2023-04-06T13:39:39;101575.19;;;8.90;85.52
71764;BME280;59602;52.142;5.408;2023-04-06T13:42:06;101574.06;;;8.91;85.45
71764;BME280;59602;52.142;5.408;2023-04-06T13:44:33;101565.94;;;8.91;86.02
71764;BME280;59602;52.142;5.408;2023-04-06T13:47:00;101577.63;;;8.95;86.35
71764;BME280;59602;52.142;5.408;2023-04-06T13:49:27;101571.78;;;8.93;86.88
71764;BME280;59602;52.142;5.408;2023-04-06T13:51:54;101570.19;;;8.92;86.72
71764;BME280;59602;52.142;5.408;2023-04-06T13:54:20;101563.91;;;8.88;86.53
71764;BME280;59602;52.142;5.408;2023-04-06T13:56:47;101568.44;;;8.84;87.15
71764;BME280;59602;52.142;5.408;2023-04-06T13:59:13;101564.59;;;8.85;86.91
71764;BME280;59602;52.142;5.408;2023-04-06T14:01:40;101562.56;;;8.82;86.64
71764;BME280;59602;52.142;5.408;2023-04-06T14:04:07;101559.09;;;8.81;87.25
71764;BME280;59602;52.142;5.408;2023-04-06T14:06:33;101557.09;;;8.78;87.31
71764;BME280;59602;52.142;5.408;2023-04-06T14:09:00;101557.09;;;8.78;87.42
71764;BME280;59602;52.142;5.408;2023-04-06T14:11:27;101557.09;;;8.78;87.31
71764;BME280;59602;52.142;5.408;2023-04-06T14:13:54;101552.78;;;8.77;87.81
71764;BME280;59602;52.142;5.408;2023-04-06T14:16:23;101549.03;;;8.82;88.22
71764;BME280;59602;52.142;5.408;2023-04-06T14:18:50;101550.28;;;8.84;88.76
71764;BME280;59602;52.142;5.408;2023-04-06T14:21:17;101545.63;;;8.85;88.83
71764;BME280;59602;52.142;5.408;2023-04-06T14:23:45;101548.78;;;8.87;89.23
71764;BME280;59602;52.142;5.408;2023-04-06T14:26:12;101542.56;;;8.86;88.93
71764;BME280;59602;52.142;5.408;2023-04-06T14:28:40;101549.47;;;8.84;89.32
71764;BME280;59602;52.142;5.408;2023-04-06T14:31:12;101545.63;;;8.85;89.50
71764;BME280;59602;52.142;5.408;2023-04-06T14:33:39;101548.00;;;8.86;89.48
71764;BME280;59602;52.142;5.408;2023-04-06T14:36:07;101549.13;;;8.85;89.75
71764;BME280;59602;52.142;5.408;2023-04-06T14:38:34;101538.28;;;8.85;89.56
71764;BME280;59602;52.142;5.408;2023-04-06T14:41:02;101541.69;;;8.82;89.77
71764;BME280;59602;52.142;5.408;2023-04-06T14:43:29;101537.66;;;8.76;89.53
71764;BME280;59602;52.142;5.408;2023-04-06T14:46:00;101534.94;;;8.76;90.16
71764;BME280;59602;52.142;5.408;2023-04-06T14:48:27;101537.22;;;8.74;90.47
71764;BME280;59602;52.142;5.408;2023-04-06T14:50:55;101540.72;;;8.75;90.52
71764;BME280;59602;52.142;5.408;2023-04-06T14:53:23;101530.25;;;8.73;90.38
71764;BME280;59602;52.142;5.408;2023-04-06T14:55:50;101531.69;;;8.70;90.50
71764;BME280;59602;52.142;5.408;2023-04-06T14:58:19;101536.69;;;8.68;90.89
71764;BME280;59602;52.142;5.408;2023-04-06T15:00:46;101528.53;;;8.68;91.08
71764;BME280;59602;52.142;5.408;2023-04-06T15:03:13;101528.91;;;8.67;91.00
71764;BME280;59602;52.142;5.408;2023-04-06T15:05:41;101522.28;;;8.64;91.31
71764;BME280;59602;52.142;5.408;2023-04-06T15:08:07;101524.09;;;8.60;90.88
71764;BME280;59602;52.142;5.408;2023-04-06T15:10:35;101527.25;;;8.62;91.47
71764;BME280;59602;52.142;5.408;2023-04-06T15:13:02;101523.31;;;8.60;90.92
71764;BME280;59602;52.142;5.408;2023-04-06T15:15:29;101520.63;;;8.60;91.46
71764;BME280;59602;52.142;5.408;2023-04-06T15:17:56;101521.84;;;8.62;91.61
71764;BME280;59602;52.142;5.408;2023-04-06T15:20:23;101517.53;;;8.61;91.87
71764;BME280;59602;52.142;5.408;2023-04-06T15:22:49;101519.91;;;8.63;91.77
71764;BME280;59602;52.142;5.408;2023-04-06T15:25:16;101502.16;;;8.65;92.16
71764;BME280;59602;52.142;5.408;2023-04-06T15:27:44;101507.91;;;8.64;91.91
71764;BME280;59602;52.142;5.408;2023-04-06T15:30:11;101506.00;;;8.64;92.09
71764;BME280;59602;52.142;5.408;2023-04-06T15:32:38;101508.78;;;8.68;92.04
71764;BME280;59602;52.142;5.408;2023-04-06T15:35:10;101502.25;;;8.69;92.22
71764;BME280;59602;52.142;5.408;2023-04-06T15:37:38;101502.59;;;8.67;92.33
71764;BME280;59602;52.142;5.408;2023-04-06T15:40:05;101498.31;;;8.66;92.52
71764;BME280;59602;52.142;5.408;2023-04-06T15:42:32;101500.66;;;8.68;92.58
71764;BME280;59602;52.142;5.408;2023-04-06T15:44:59;101486.75;;;8.69;92.89
71764;BME280;59602;52.142;5.408;2023-04-06T15:47:25;101490.41;;;8.61;92.76